Time;durP1;ratioP1;P1;durP2;ratioP2;P2;SDS_P1;SDS_P2;PMS_P1;PMS_P2;Temp;Humidity;BMP_temperature;BMP_pressure;BME280_temperature;BME280_humidity;BME280_pressure;Samples;Min_cycle;Max_cycle;Signal;HPM_P1;HPM_P2
2022/06/10 00:00:50;;;;;;;0.80;0.80;;;;;;;;;;1794906;77;26282;-53
2022/06/10 00:03:18;;;;;;;0.80;0.80;;;;;;;;;;1789371;77;26754;-50
2022/06/10 00:05:48;;;;;;;0.80;0.80;;;;;;;;;;1815308;77;26265;-47
2022/06/10 00:08:17;;;;;;;0.80;0.80;;;;;;;;;;1829245;77;26233;-54
2022/06/10 00:10:45;;;;;;;0.90;0.90;;;;;;;;;;1800449;77;26339;-46
2022/06/10 00:13:14;;;;;;;0.88;0.88;;;;;;;;;;1796428;77;26377;-48
2022/06/10 00:15:42;;;;;;;0.80;0.80;;;;;;;;;;1822461;77;26230;-51
2022/06/10 00:18:10;;;;;;;0.80;0.80;;;;;;;;;;1797354;77;27666;-52
2022/06/10 00:20:37;;;;;;;0.90;0.90;;;;;;;;;;1789612;78;26255;-51
2022/06/10 00:23:06;;;;;;;0.85;0.85;;;;;;;;;;1801679;77;26693;-48
2022/06/10 00:25:34;;;;;;;0.82;0.82;;;;;;;;;;1833485;77;26241;-49
2022/06/10 00:28:01;;;;;;;0.88;0.88;;;;;;;;;;1814024;77;26261;-50
2022/06/10 00:30:29;;;;;;;0.90;0.90;;;;;;;;;;1803461;77;26345;-51
2022/06/10 00:32:57;;;;;;;0.82;0.82;;;;;;;;;;1809229;77;26269;-50
2022/06/10 00:35:25;;;;;;;0.80;0.80;;;;;;;;;;1813054;77;26680;-52
2022/06/10 00:37:52;;;;;;;0.80;0.80;;;;;;;;;;1823341;77;26377;-50
2022/06/10 00:40:21;;;;;;;0.80;0.80;;;;;;;;;;1824702;77;26292;-50
2022/06/10 00:42:48;;;;;;;0.90;0.90;;;;;;;;;;1823649;77;26378;-48
2022/06/10 00:45:34;;;;;;;0.80;0.80;;;;;;;;;;1759262;80;26314;-50
2022/06/10 00:48:01;;;;;;;0.70;0.70;;;;;;;;;;1785293;79;26307;-51
2022/06/10 00:50:30;;;;;;;0.80;0.80;;;;;;;;;;1785463;80;26840;-51
2022/06/10 00:52:59;;;;;;;0.70;0.70;;;;;;;;;;1764229;79;26568;-47
2022/06/10 00:55:29;;;;;;;0.90;0.90;;;;;;;;;;1787015;79;26287;-48
2022/06/10 00:58:01;;;;;;;0.70;0.70;;;;;;;;;;1781772;79;26301;-48
2022/06/10 01:00:29;;;;;;;0.70;0.70;;;;;;;;;;1833945;77;26268;-51
2022/06/10 01:02:56;;;;;;;0.80;0.80;;;;;;;;;;1803622;77;26347;-51
2022/06/10 01:05:25;;;;;;;0.88;0.88;;;;;;;;;;1808067;77;26301;-46
2022/06/10 01:07:54;;;;;;;0.90;0.90;;;;;;;;;;1808378;77;26284;-51
2022/06/10 01:10:22;;;;;;;0.80;0.80;;;;;;;;;;1816630;77;26286;-51
2022/06/10 01:12:57;;;;;;;0.80;0.80;;;;;;;;;;1823702;78;26350;-54
2022/06/10 01:15:25;;;;;;;0.80;0.80;;;;;;;;;;1814122;78;26759;-50
2022/06/10 01:17:54;;;;;;;0.80;0.80;;;;;;;;;;1822680;77;26783;-52
2022/06/10 01:20:39;;;;;;;0.80;0.80;;;;;;;;;;1775033;77;26723;-48
2022/06/10 01:23:08;;;;;;;0.80;0.80;;;;;;;;;;1821512;77;26333;-51
2022/06/10 01:25:43;;;;;;;0.80;0.80;;;;;;;;;;1806126;77;26268;-50
2022/06/10 01:28:15;;;;;;;0.80;0.80;;;;;;;;;;1802859;77;26281;-47
2022/06/10 01:30:56;;;;;;;0.70;0.70;;;;;;;;;;1838147;77;26270;-52
2022/06/10 01:33:34;;;;;;;0.70;0.70;;;;;;;;;;1816818;77;26728;-47
2022/06/10 01:36:05;;;;;;;0.78;0.78;;;;;;;;;;1817705;77;26237;-49
2022/06/10 01:38:34;;;;;;;0.65;0.65;;;;;;;;;;1806439;77;26363;-50
2022/06/10 01:41:14;;;;;;;0.75;0.75;;;;;;;;;;1807583;78;26816;-52
2022/06/10 01:43:54;;;;;;;0.90;0.90;;;;;;;;;;1812458;77;26335;-46
2022/06/10 01:46:25;;;;;;;0.80;0.80;;;;;;;;;;1806897;77;26249;-49
2022/06/10 01:48:53;;;;;;;0.70;0.70;;;;;;;;;;1821224;77;26249;-46
2022/06/10 01:51:22;;;;;;;0.80;0.80;;;;;;;;;;1796974;78;26665;-50
2022/06/10 01:54:00;;;;;;;0.80;0.80;;;;;;;;;;1818141;77;26635;-48
2022/06/10 01:56:30;;;;;;;0.70;0.70;;;;;;;;;;1802834;77;26298;-51
2022/06/10 01:59:08;;;;;;;0.80;0.80;;;;;;;;;;1830028;77;26369;-48
2022/06/10 02:01:37;;;;;;;0.82;0.82;;;;;;;;;;1792239;78;27173;-52
2022/06/10 02:04:09;;;;;;;0.65;0.65;;;;;;;;;;1807492;77;26297;-47
2022/06/10 02:06:54;;;;;;;0.70;0.70;;;;;;;;;;1799222;77;26210;-50
2022/06/10 02:09:23;;;;;;;0.80;0.80;;;;;;;;;;1817031;77;26906;-47
2022/06/10 02:11:52;;;;;;;0.70;0.70;;;;;;;;;;1808842;77;26683;-49
2022/06/10 02:14:23;;;;;;;0.70;0.70;;;;;;;;;;1823230;77;26277;-52
2022/06/10 02:16:52;;;;;;;0.70;0.70;;;;;;;;;;1824964;77;26951;-47
2022/06/10 02:19:30;;;;;;;0.82;0.82;;;;;;;;;;1814840;77;26816;-48
2022/06/10 02:22:05;;;;;;;0.72;0.72;;;;;;;;;;1812732;77;26293;-54
2022/06/10 02:24:34;;;;;;;0.70;0.70;;;;;;;;;;1799860;77;26324;-54
2022/06/10 02:27:02;;;;;;;0.78;0.78;;;;;;;;;;1798690;77;26218;-54
2022/06/10 02:29:31;;;;;;;0.72;0.72;;;;;;;;;;1820743;77;26778;-47
2022/06/10 02:31:59;;;;;;;0.70;0.70;;;;;;;;;;1837818;77;26760;-51
2022/06/10 02:34:28;;;;;;;0.68;0.68;;;;;;;;;;1823025;76;26271;-52
2022/06/10 02:37:09;;;;;;;0.70;0.70;;;;;;;;;;1800576;77;26622;-49
2022/06/10 02:39:38;;;;;;;0.70;0.70;;;;;;;;;;1796210;78;26369;-48
2022/06/10 02:42:23;;;;;;;0.80;0.80;;;;;;;;;;1804679;77;26693;-50
2022/06/10 02:44:51;;;;;;;0.80;0.80;;;;;;;;;;1810549;77;26337;-51
2022/06/10 02:47:20;;;;;;;0.80;0.80;;;;;;;;;;1809242;77;26828;-53
2022/06/10 02:49:48;;;;;;;0.75;0.75;;;;;;;;;;1809489;79;26736;-47
2022/06/10 02:52:16;;;;;;;0.80;0.80;;;;;;;;;;1817503;77;26249;-51
2022/06/10 02:54:44;;;;;;;0.80;0.80;;;;;;;;;;1802678;77;26254;-49
2022/06/10 02:57:13;;;;;;;0.70;0.70;;;;;;;;;;1821465;77;26282;-49
2022/06/10 03:02:31;;;;;;;0.78;0.78;;;;;;;;;;1817907;77;26746;-52
2022/06/10 03:05:03;;;;;;;0.70;0.70;;;;;;;;;;1808258;79;26214;-47
2022/06/10 03:07:50;;;;;;;0.70;0.70;;;;;;;;;;1808056;77;26269;-52
2022/06/10 03:10:22;;;;;;;0.80;0.80;;;;;;;;;;1791590;77;26299;-50
2022/06/10 03:13:00;;;;;;;0.88;0.88;;;;;;;;;;1814268;77;26253;-53
2022/06/10 03:15:46;;;;;;;0.88;0.88;;;;;;;;;;1809011;77;26641;-50
2022/06/10 03:18:14;;;;;;;0.70;0.70;;;;;;;;;;1803117;77;26324;-53
2022/06/10 03:20:46;;;;;;;0.78;0.78;;;;;;;;;;1802098;77;26377;-50
2022/06/10 03:23:17;;;;;;;0.80;0.80;;;;;;;;;;1797780;77;26240;-51
2022/06/10 03:25:52;;;;;;;0.80;0.80;;;;;;;;;;1834538;76;26370;-53
2022/06/10 03:28:23;;;;;;;0.70;0.70;;;;;;;;;;1839758;76;26314;-50
2022/06/10 03:30:58;;;;;;;0.75;0.75;;;;;;;;;;1856199;76;26613;-49
2022/06/10 03:33:34;;;;;;;0.78;0.78;;;;;;;;;;1818077;76;26361;-51
2022/06/10 03:36:09;;;;;;;0.70;0.70;;;;;;;;;;1846246;76;26266;-52
2022/06/10 03:38:38;;;;;;;0.70;0.70;;;;;;;;;;1849569;76;26315;-46
2022/06/10 03:41:06;;;;;;;0.70;0.70;;;;;;;;;;1874441;76;26241;-52
2022/06/10 03:43:37;;;;;;;0.88;0.88;;;;;;;;;;1839002;76;26762;-49
2022/06/10 03:46:06;;;;;;;0.70;0.70;;;;;;;;;;1833461;76;26306;-47
2022/06/10 03:48:35;;;;;;;0.70;0.70;;;;;;;;;;1823037;76;26290;-52
2022/06/10 03:51:03;;;;;;;0.72;0.72;;;;;;;;;;1825939;76;26331;-50
2022/06/10 03:53:30;;;;;;;0.80;0.80;;;;;;;;;;1848254;77;26854;-49
2022/06/10 03:55:57;;;;;;;0.78;0.78;;;;;;;;;;1832711;78;26901;-54
2022/06/10 03:58:25;;;;;;;0.80;0.80;;;;;;;;;;1798516;77;26876;-49
2022/06/10 04:00:52;;;;;;;0.78;0.78;;;;;;;;;;1794305;78;26857;-48
2022/06/10 04:03:19;;;;;;;0.90;0.90;;;;;;;;;;1791149;78;26358;-53
2022/06/10 04:05:46;;;;;;;0.80;0.80;;;;;;;;;;1792494;79;26318;-50
2022/06/10 04:08:14;;;;;;;0.80;0.80;;;;;;;;;;1796606;78;26282;-53
2022/06/10 04:10:41;;;;;;;0.70;0.70;;;;;;;;;;1786935;78;26342;-52
2022/06/10 04:13:09;;;;;;;0.70;0.70;;;;;;;;;;1798385;78;26270;-48
2022/06/10 04:15:38;;;;;;;0.70;0.70;;;;;;;;;;1791679;78;26399;-47
2022/06/10 04:18:05;;;;;;;0.80;0.80;;;;;;;;;;1803393;78;26384;-50
2022/06/10 04:20:34;;;;;;;0.62;0.62;;;;;;;;;;1792596;78;26291;-47
2022/06/10 04:23:03;;;;;;;0.80;0.80;;;;;;;;;;1798470;78;26293;-49
2022/06/10 04:25:31;;;;;;;0.80;0.80;;;;;;;;;;1761189;81;26257;-50
2022/06/10 04:27:58;;;;;;;0.78;0.78;;;;;;;;;;1740883;80;26761;-50
2022/06/10 04:30:27;;;;;;;0.80;0.80;;;;;;;;;;1744089;80;26349;-52
2022/06/10 04:32:54;;;;;;;0.70;0.70;;;;;;;;;;1756923;80;26343;-49
2022/06/10 04:35:22;;;;;;;0.70;0.70;;;;;;;;;;1763982;80;26778;-51
2022/06/10 04:37:50;;;;;;;0.70;0.70;;;;;;;;;;1748455;80;26324;-47
2022/06/10 04:40:18;;;;;;;0.70;0.70;;;;;;;;;;1743220;80;26861;-48
2022/06/10 04:42:47;;;;;;;0.80;0.80;;;;;;;;;;1749349;80;26297;-51
2022/06/10 04:45:15;;;;;;;0.70;0.70;;;;;;;;;;1747787;80;26313;-48
2022/06/10 04:47:43;;;;;;;0.70;0.70;;;;;;;;;;1774494;80;26849;-52
2022/06/10 04:50:11;;;;;;;0.70;0.70;;;;;;;;;;1749598;80;26296;-48
2022/06/10 04:52:39;;;;;;;0.80;0.80;;;;;;;;;;1731342;83;26312;-53
2022/06/10 04:55:07;;;;;;;0.70;0.70;;;;;;;;;;1732203;81;26268;-48
2022/06/10 04:57:35;;;;;;;0.70;0.70;;;;;;;;;;1749325;80;26732;-49
2022/06/10 05:00:03;;;;;;;0.80;0.80;;;;;;;;;;1747702;80;26349;-49
2022/06/10 05:02:33;;;;;;;0.70;0.70;;;;;;;;;;1738271;80;26293;-51
2022/06/10 05:05:00;;;;;;;0.80;0.80;;;;;;;;;;1731373;81;26424;-52
2022/06/10 05:07:28;;;;;;;0.82;0.82;;;;;;;;;;1743187;80;26335;-49
2022/06/10 05:09:55;;;;;;;0.70;0.70;;;;;;;;;;1775580;79;26335;-50
2022/06/10 05:12:22;;;;;;;0.70;0.70;;;;;;;;;;1728934;83;26363;-50
2022/06/10 05:14:49;;;;;;;0.70;0.70;;;;;;;;;;1738795;80;26955;-51
2022/06/10 05:17:17;;;;;;;0.72;0.72;;;;;;;;;;1743570;80;26774;-48
2022/06/10 05:19:47;;;;;;;0.80;0.80;;;;;;;;;;1753678;80;26713;-52
2022/06/10 05:22:14;;;;;;;0.80;0.80;;;;;;;;;;1750575;80;26766;-51
2022/06/10 05:24:42;;;;;;;0.90;0.90;;;;;;;;;;1753482;78;26304;-51
2022/06/10 05:27:10;;;;;;;0.65;0.65;;;;;;;;;;1800600;78;26606;-49
2022/06/10 05:29:37;;;;;;;0.75;0.75;;;;;;;;;;1807220;78;26276;-49
2022/06/10 05:32:05;;;;;;;0.70;0.70;;;;;;;;;;1802923;78;26220;-48
2022/06/10 05:34:45;;;;;;;0.70;0.70;;;;;;;;;;1804083;78;26334;-50
2022/06/10 05:37:13;;;;;;;0.70;0.70;;;;;;;;;;1803751;78;26351;-51
2022/06/10 05:39:40;;;;;;;0.80;0.80;;;;;;;;;;1802356;78;26279;-50
2022/06/10 05:42:09;;;;;;;0.80;0.80;;;;;;;;;;1804834;78;26339;-51
2022/06/10 05:44:38;;;;;;;0.80;0.80;;;;;;;;;;1789864;78;26380;-50
2022/06/10 05:47:07;;;;;;;0.75;0.75;;;;;;;;;;1795417;78;26396;-50
2022/06/10 05:49:36;;;;;;;0.80;0.80;;;;;;;;;;1800198;78;26314;-48
2022/06/10 05:52:05;;;;;;;0.80;0.80;;;;;;;;;;1843950;76;26280;-49
2022/06/10 05:54:33;;;;;;;0.70;0.70;;;;;;;;;;1843820;76;26717;-52
2022/06/10 05:57:01;;;;;;;0.85;0.85;;;;;;;;;;1841293;77;26694;-52
2022/06/10 05:59:33;;;;;;;0.70;0.70;;;;;;;;;;1841816;76;26272;-48
2022/06/10 06:02:01;;;;;;;0.70;0.70;;;;;;;;;;1836994;76;26320;-53
2022/06/10 06:04:29;;;;;;;0.80;0.80;;;;;;;;;;1844294;76;26257;-53
2022/06/10 06:06:56;;;;;;;0.80;0.80;;;;;;;;;;1835388;76;26684;-55
2022/06/10 06:09:24;;;;;;;0.80;0.80;;;;;;;;;;1853839;76;26298;-55
2022/06/10 06:11:54;;;;;;;0.90;0.90;;;;;;;;;;1850688;76;26845;-50
2022/06/10 06:14:20;;;;;;;0.88;0.88;;;;;;;;;;1847796;76;26843;-50
2022/06/10 06:16:49;;;;;;;0.80;0.80;;;;;;;;;;1838240;76;26279;-51
2022/06/10 06:19:16;;;;;;;0.80;0.80;;;;;;;;;;1825656;76;26271;-48
2022/06/10 06:21:44;;;;;;;0.80;0.80;;;;;;;;;;1846990;76;26280;-51
2022/06/10 06:24:11;;;;;;;0.80;0.80;;;;;;;;;;1848052;76;26205;-50
2022/06/10 06:26:38;;;;;;;0.80;0.80;;;;;;;;;;1823372;76;26755;-49
2022/06/10 06:29:06;;;;;;;0.80;0.80;;;;;;;;;;1831188;76;26738;-53
2022/06/10 06:31:34;;;;;;;0.80;0.80;;;;;;;;;;1865003;76;26567;-51
2022/06/10 06:34:01;;;;;;;0.80;0.80;;;;;;;;;;1834604;76;26215;-50
2022/06/10 06:36:30;;;;;;;0.88;0.88;;;;;;;;;;1836867;76;26268;-47
2022/06/10 06:38:57;;;;;;;0.80;0.80;;;;;;;;;;1839728;76;26344;-50
2022/06/10 06:41:24;;;;;;;0.70;0.70;;;;;;;;;;1830381;76;26317;-51
2022/06/10 06:43:52;;;;;;;0.70;0.70;;;;;;;;;;1831335;76;26845;-46
2022/06/10 06:46:19;;;;;;;0.80;0.80;;;;;;;;;;1826514;76;26208;-49
2022/06/10 06:48:47;;;;;;;0.90;0.90;;;;;;;;;;1831797;76;26303;-54
2022/06/10 06:51:15;;;;;;;0.72;0.72;;;;;;;;;;1839728;76;26315;-55
2022/06/10 06:53:42;;;;;;;0.85;0.85;;;;;;;;;;1840641;76;26221;-51
2022/06/10 06:56:10;;;;;;;0.70;0.70;;;;;;;;;;1863706;76;26212;-48
2022/06/10 06:58:37;;;;;;;0.80;0.80;;;;;;;;;;1830862;76;26294;-51
2022/06/10 07:01:05;;;;;;;0.90;0.90;;;;;;;;;;1832773;76;26292;-47
2022/06/10 07:03:32;;;;;;;0.80;0.80;;;;;;;;;;1817782;77;26373;-48
2022/06/10 07:05:59;;;;;;;0.90;0.90;;;;;;;;;;1869077;76;26264;-49
2022/06/10 07:08:31;;;;;;;0.80;0.80;;;;;;;;;;1832967;76;26303;-48
2022/06/10 07:10:56;;;;;;;0.80;0.80;;;;;;;;;;1822644;76;26425;-52
2022/06/10 07:13:23;;;;;;;0.90;0.90;;;;;;;;;;1847514;76;26284;-48
2022/06/10 07:15:50;;;;;;;0.90;0.90;;;;;;;;;;1866815;76;26246;-50
2022/06/10 07:18:17;;;;;;;0.90;0.90;;;;;;;;;;1842042;76;26341;-50
2022/06/10 07:20:45;;;;;;;0.80;0.80;;;;;;;;;;1820364;76;26290;-50
2022/06/10 07:23:12;;;;;;;0.75;0.75;;;;;;;;;;1845869;76;27175;-51
2022/06/10 07:25:39;;;;;;;0.80;0.80;;;;;;;;;;1847484;76;26296;-53
2022/06/10 07:28:08;;;;;;;0.80;0.80;;;;;;;;;;1847819;76;26212;-51
2022/06/10 07:30:35;;;;;;;0.90;0.90;;;;;;;;;;1866188;76;26809;-50
2022/06/10 07:33:03;;;;;;;0.68;0.68;;;;;;;;;;1849056;76;26347;-48
2022/06/10 07:35:30;;;;;;;0.80;0.80;;;;;;;;;;1848248;76;26341;-50
2022/06/10 07:38:00;;;;;;;0.93;0.93;;;;;;;;;;1840627;76;26266;-53
2022/06/10 07:43:15;;;;;;;0.80;0.80;;;;;;;;;;1834802;76;26344;-49
2022/06/10 07:45:43;;;;;;;0.75;0.75;;;;;;;;;;1850914;76;26811;-51
2022/06/10 07:48:12;;;;;;;0.80;0.80;;;;;;;;;;1823042;76;26361;-53
2022/06/10 07:50:40;;;;;;;0.70;0.70;;;;;;;;;;1834684;76;26279;-49
2022/06/10 07:53:08;;;;;;;0.80;0.80;;;;;;;;;;1836854;76;26225;-49
2022/06/10 07:55:36;;;;;;;0.70;0.70;;;;;;;;;;1855459;76;26781;-49
2022/06/10 07:58:06;;;;;;;0.80;0.80;;;;;;;;;;1840315;76;26329;-52
2022/06/10 08:00:34;;;;;;;0.72;0.72;;;;;;;;;;1829097;76;26742;-49
2022/06/10 08:03:01;;;;;;;0.80;0.80;;;;;;;;;;1827615;76;26291;-49
2022/06/10 08:05:29;;;;;;;0.70;0.70;;;;;;;;;;1827582;76;26303;-52
2022/06/10 08:07:57;;;;;;;0.80;0.80;;;;;;;;;;1862821;76;26308;-46
2022/06/10 08:10:28;;;;;;;0.80;0.80;;;;;;;;;;1845957;76;26324;-53
2022/06/10 08:12:56;;;;;;;0.75;0.75;;;;;;;;;;1843961;76;26814;-50
2022/06/10 08:15:24;;;;;;;0.70;0.70;;;;;;;;;;1825141;76;26302;-49
2022/06/10 08:17:52;;;;;;;0.70;0.70;;;;;;;;;;1853245;76;26780;-53
2022/06/10 08:20:21;;;;;;;0.70;0.70;;;;;;;;;;1820464;76;26360;-51
2022/06/10 08:22:48;;;;;;;0.93;0.93;;;;;;;;;;1825206;76;26302;-46
2022/06/10 08:25:16;;;;;;;0.70;0.70;;;;;;;;;;1831192;76;26209;-50
2022/06/10 08:27:44;;;;;;;0.70;0.70;;;;;;;;;;1818648;77;26303;-52
2022/06/10 08:30:13;;;;;;;0.60;0.60;;;;;;;;;;1828031;77;26746;-53
2022/06/10 08:32:40;;;;;;;0.70;0.70;;;;;;;;;;1818361;77;26690;-48
2022/06/10 08:35:08;;;;;;;0.70;0.70;;;;;;;;;;1811305;77;26656;-49
2022/06/10 08:37:35;;;;;;;0.70;0.70;;;;;;;;;;1819962;77;26299;-51
2022/06/10 08:40:02;;;;;;;0.72;0.72;;;;;;;;;;1822681;77;26747;-49
2022/06/10 08:42:34;;;;;;;0.80;0.80;;;;;;;;;;1812401;77;26744;-48
2022/06/10 08:45:06;;;;;;;0.72;0.72;;;;;;;;;;1824942;77;26248;-50
2022/06/10 08:47:34;;;;;;;0.80;0.80;;;;;;;;;;1821780;77;26262;-49
2022/06/10 08:50:06;;;;;;;0.72;0.72;;;;;;;;;;1821633;77;26260;-52
2022/06/10 08:52:38;;;;;;;0.70;0.70;;;;;;;;;;1840923;77;26288;-49
2022/06/10 08:55:23;;;;;;;0.68;0.68;;;;;;;;;;1808678;77;25722;-52
2022/06/10 08:57:51;;;;;;;0.80;0.80;;;;;;;;;;1836667;77;26259;-49
2022/06/10 09:00:22;;;;;;;0.80;0.80;;;;;;;;;;1795834;77;26231;-47
2022/06/10 09:02:51;;;;;;;0.60;0.60;;;;;;;;;;1836415;77;26620;-47
2022/06/10 09:05:20;;;;;;;0.80;0.80;;;;;;;;;;1820654;77;26620;-47
2022/06/10 09:07:49;;;;;;;0.70;0.70;;;;;;;;;;1827524;77;26404;-50
2022/06/10 09:10:21;;;;;;;0.60;0.60;;;;;;;;;;1839869;77;26755;-52
2022/06/10 09:12:59;;;;;;;0.80;0.80;;;;;;;;;;1824284;77;26228;-48
2022/06/10 09:15:28;;;;;;;0.70;0.70;;;;;;;;;;1835429;77;26768;-51
2022/06/10 09:17:57;;;;;;;0.80;0.80;;;;;;;;;;1829463;77;26816;-50
2022/06/10 09:20:32;;;;;;;0.90;0.90;;;;;;;;;;1798188;77;26267;-52
2022/06/10 09:23:00;;;;;;;0.80;0.80;;;;;;;;;;1807716;77;26242;-46
2022/06/10 09:25:41;;;;;;;0.70;0.70;;;;;;;;;;1834155;77;26263;-53
2022/06/10 09:28:09;;;;;;;0.80;0.80;;;;;;;;;;1826407;77;26304;-50
2022/06/10 09:30:40;;;;;;;0.70;0.70;;;;;;;;;;1800169;77;26924;-51
2022/06/10 09:33:15;;;;;;;0.80;0.80;;;;;;;;;;1802061;77;26197;-50
2022/06/10 09:35:53;;;;;;;0.78;0.78;;;;;;;;;;1802424;77;26861;-50
2022/06/10 09:38:20;;;;;;;0.70;0.70;;;;;;;;;;1807511;77;25799;-51
2022/06/10 09:40:52;;;;;;;0.78;0.78;;;;;;;;;;1812825;77;26700;-54
2022/06/10 09:43:42;;;;;;;0.80;0.80;;;;;;;;;;1809127;77;26358;-55
2022/06/10 09:46:14;;;;;;;0.72;0.72;;;;;;;;;;1809605;77;26339;-52
2022/06/10 09:48:49;;;;;;;0.70;0.70;;;;;;;;;;1801363;77;26273;-47
2022/06/10 09:51:27;;;;;;;0.80;0.80;;;;;;;;;;1820143;77;26264;-48
2022/06/10 09:53:59;;;;;;;0.80;0.80;;;;;;;;;;1841092;77;26292;-49
2022/06/10 09:56:28;;;;;;;0.80;0.80;;;;;;;;;;1802318;77;26786;-51
2022/06/10 09:59:09;;;;;;;0.78;0.78;;;;;;;;;;1796766;77;26345;-46
2022/06/10 10:01:37;;;;;;;0.90;0.90;;;;;;;;;;1832407;77;26281;-49
2022/06/10 10:04:21;;;;;;;0.90;0.90;;;;;;;;;;1837864;77;26784;-48
2022/06/10 10:06:50;;;;;;;0.70;0.70;;;;;;;;;;1745007;80;26335;-47
2022/06/10 10:09:31;;;;;;;0.78;0.78;;;;;;;;;;1818366;77;26906;-49
2022/06/10 10:12:00;;;;;;;0.75;0.75;;;;;;;;;;1819660;77;26273;-48
2022/06/10 10:14:35;;;;;;;0.80;0.80;;;;;;;;;;1825997;77;26338;-50
2022/06/10 10:17:03;;;;;;;0.80;0.80;;;;;;;;;;1809575;77;26339;-49
2022/06/10 10:19:41;;;;;;;0.80;0.80;;;;;;;;;;1808379;77;26213;-52
2022/06/10 10:22:22;;;;;;;0.80;0.80;;;;;;;;;;1813055;77;26342;-50
2022/06/10 10:24:50;;;;;;;0.85;0.85;;;;;;;;;;1816707;77;26269;-50
2022/06/10 10:27:22;;;;;;;0.80;0.80;;;;;;;;;;1805442;77;26727;-50
2022/06/10 10:29:51;;;;;;;0.90;0.90;;;;;;;;;;1807301;77;26347;-49
2022/06/10 10:32:20;;;;;;;0.90;0.90;;;;;;;;;;1802678;77;27348;-48
2022/06/10 10:34:48;;;;;;;0.90;0.90;;;;;;;;;;1820136;77;26316;-51
2022/06/10 10:37:22;;;;;;;0.90;0.90;;;;;;;;;;1794925;77;26323;-50
2022/06/10 10:39:51;;;;;;;0.90;0.90;;;;;;;;;;1812738;77;26760;-50
2022/06/10 10:42:19;;;;;;;0.90;0.90;;;;;;;;;;1809879;77;26315;-47
2022/06/10 10:45:06;;;;;;;0.80;0.80;;;;;;;;;;1813652;77;26201;-53
2022/06/10 10:47:35;;;;;;;0.80;0.80;;;;;;;;;;1809605;77;26433;-50
2022/06/10 10:50:04;;;;;;;1.12;0.90;;;;;;;;;;1804569;78;26352;-47
2022/06/10 10:52:33;;;;;;;0.80;0.80;;;;;;;;;;1812078;77;26275;-49
2022/06/10 10:55:01;;;;;;;0.80;0.80;;;;;;;;;;1800885;77;26257;-47
2022/06/10 10:57:30;;;;;;;0.80;0.80;;;;;;;;;;1818260;77;26318;-48
2022/06/10 10:59:59;;;;;;;0.90;0.90;;;;;;;;;;1793591;77;26861;-49
2022/06/10 11:02:28;;;;;;;0.90;0.90;;;;;;;;;;1792479;77;26751;-47
2022/06/10 11:05:12;;;;;;;1.02;1.02;;;;;;;;;;1840683;77;26821;-49
2022/06/10 11:07:40;;;;;;;0.90;0.90;;;;;;;;;;1831474;77;26344;-50
2022/06/10 11:10:09;;;;;;;0.90;0.90;;;;;;;;;;1797252;77;26498;-54
2022/06/10 11:12:36;;;;;;;1.00;1.00;;;;;;;;;;1826864;77;26282;-49
2022/06/10 11:15:06;;;;;;;0.88;0.88;;;;;;;;;;1823058;77;26253;-49
2022/06/10 11:17:35;;;;;;;0.80;0.80;;;;;;;;;;1824320;76;26277;-49
2022/06/10 11:20:04;;;;;;;1.00;1.00;;;;;;;;;;1814271;77;26216;-47
2022/06/10 11:22:38;;;;;;;0.80;0.80;;;;;;;;;;1794535;77;26520;-48
2022/06/10 11:25:09;;;;;;;1.10;1.10;;;;;;;;;;1824409;77;26272;-50
2022/06/10 11:27:36;;;;;;;1.00;1.00;;;;;;;;;;1817985;77;26292;-50
2022/06/10 11:30:05;;;;;;;0.82;0.82;;;;;;;;;;1810146;77;26273;-49
2022/06/10 11:32:35;;;;;;;0.93;0.93;;;;;;;;;;1805214;78;26299;-49
2022/06/10 11:35:04;;;;;;;1.00;1.00;;;;;;;;;;1824068;77;26245;-48
2022/06/10 11:37:33;;;;;;;0.88;0.88;;;;;;;;;;1831425;77;26205;-48
2022/06/10 11:40:07;;;;;;;0.90;0.90;;;;;;;;;;1815071;77;25758;-50
2022/06/10 11:42:36;;;;;;;0.90;0.90;;;;;;;;;;1808357;77;26275;-47
2022/06/10 11:45:09;;;;;;;0.90;0.90;;;;;;;;;;1815277;77;26256;-51
2022/06/10 11:47:37;;;;;;;0.95;0.95;;;;;;;;;;1818733;77;26257;-53
2022/06/10 11:50:06;;;;;;;0.98;0.98;;;;;;;;;;1821209;78;26361;-48
2022/06/10 11:52:34;;;;;;;0.90;0.90;;;;;;;;;;1822886;77;26343;-47
2022/06/10 11:55:03;;;;;;;0.90;0.90;;;;;;;;;;1816366;77;26250;-48
2022/06/10 12:00:22;;;;;;;0.93;0.93;;;;;;;;;;1815471;77;26296;-49
2022/06/10 12:03:00;;;;;;;1.00;1.00;;;;;;;;;;1818452;77;26785;-49
2022/06/10 12:05:32;;;;;;;1.02;1.02;;;;;;;;;;1829580;77;26239;-50
2022/06/10 12:08:16;;;;;;;1.00;1.00;;;;;;;;;;1808242;77;26285;-53
2022/06/10 12:10:45;;;;;;;0.90;0.90;;;;;;;;;;1807476;77;26284;-50
2022/06/10 12:13:14;;;;;;;1.10;1.10;;;;;;;;;;1814619;78;26216;-49
2022/06/10 12:15:42;;;;;;;0.85;0.85;;;;;;;;;;1810623;77;26429;-48
2022/06/10 12:18:11;;;;;;;1.05;1.05;;;;;;;;;;1800392;78;26330;-49
2022/06/10 12:20:46;;;;;;;0.95;0.95;;;;;;;;;;1805679;77;26209;-52
2022/06/10 12:23:27;;;;;;;1.00;1.00;;;;;;;;;;1823588;77;26319;-48
2022/06/10 12:25:55;;;;;;;0.98;0.98;;;;;;;;;;1823298;77;26249;-48
2022/06/10 12:28:27;;;;;;;1.00;1.00;;;;;;;;;;1811026;77;26339;-51
2022/06/10 12:31:13;;;;;;;1.27;1.27;;;;;;;;;;1799873;78;26273;-49
2022/06/10 12:33:41;;;;;;;1.17;1.17;;;;;;;;;;1817778;77;26382;-52
2022/06/10 12:36:10;;;;;;;1.20;1.20;;;;;;;;;;1819644;77;26249;-47
2022/06/10 12:38:40;;;;;;;1.10;1.10;;;;;;;;;;1815221;77;26328;-49
2022/06/10 12:41:08;;;;;;;1.10;1.10;;;;;;;;;;1818259;77;26311;-49
2022/06/10 12:43:40;;;;;;;1.10;1.10;;;;;;;;;;1808616;77;26720;-51
2022/06/10 12:46:25;;;;;;;1.10;1.10;;;;;;;;;;1795563;78;26747;-49
2022/06/10 12:48:54;;;;;;;1.10;1.10;;;;;;;;;;1797393;77;26839;-51
2022/06/10 12:51:29;;;;;;;1.00;1.00;;;;;;;;;;1814138;77;26741;-52
2022/06/10 12:54:00;;;;;;;1.20;1.20;;;;;;;;;;1809121;78;26249;-48
2022/06/10 12:56:32;;;;;;;1.20;1.20;;;;;;;;;;1810580;77;26317;-48
2022/06/10 12:59:07;;;;;;;1.20;1.20;;;;;;;;;;1804796;77;26283;-52
2022/06/10 13:01:36;;;;;;;1.22;1.22;;;;;;;;;;1800328;78;26378;-52
2022/06/10 13:04:08;;;;;;;1.00;1.00;;;;;;;;;;1808705;77;26327;-49
2022/06/10 13:06:45;;;;;;;1.20;1.20;;;;;;;;;;1832658;77;26354;-47
2022/06/10 13:09:19;;;;;;;1.10;1.10;;;;;;;;;;1823547;77;26412;-52
2022/06/10 13:11:47;;;;;;;1.10;1.10;;;;;;;;;;1804066;77;26209;-49
2022/06/10 13:14:19;;;;;;;1.17;1.17;;;;;;;;;;1802164;77;26279;-50
2022/06/10 13:16:48;;;;;;;1.35;1.35;;;;;;;;;;1794540;77;26787;-52
2022/06/10 13:19:36;;;;;;;1.10;1.10;;;;;;;;;;1797188;77;26373;-53
2022/06/10 13:22:20;;;;;;;1.20;1.20;;;;;;;;;;1795575;77;26354;-53
2022/06/10 13:24:52;;;;;;;1.10;1.10;;;;;;;;;;1797227;77;26218;-48
2022/06/10 13:27:27;;;;;;;1.30;1.30;;;;;;;;;;1805769;77;26292;-51
2022/06/10 13:30:00;;;;;;;1.40;1.30;;;;;;;;;;1811845;77;26317;-51
2022/06/10 13:32:28;;;;;;;1.22;1.22;;;;;;;;;;1813175;77;26319;-49
2022/06/10 13:34:57;;;;;;;1.35;1.35;;;;;;;;;;1816890;77;26752;-51
2022/06/10 13:37:26;;;;;;;1.37;1.37;;;;;;;;;;1807001;77;26353;-48
2022/06/10 13:39:57;;;;;;;1.22;1.22;;;;;;;;;;1810873;77;26249;-49
2022/06/10 13:42:31;;;;;;;1.20;1.20;;;;;;;;;;1809303;77;26347;-50
2022/06/10 13:45:02;;;;;;;1.40;1.40;;;;;;;;;;1800599;78;26336;-50
2022/06/10 13:47:31;;;;;;;1.40;1.40;;;;;;;;;;1815006;77;26318;-53
2022/06/10 13:50:17;;;;;;;1.50;1.50;;;;;;;;;;1811065;78;26257;-49
2022/06/10 13:52:43;;;;;;;1.20;1.20;;;;;;;;;;1819890;77;26750;-52
2022/06/10 13:55:15;;;;;;;1.40;1.40;;;;;;;;;;1830652;77;26262;-50
2022/06/10 13:57:42;;;;;;;1.30;1.30;;;;;;;;;;1807223;78;26694;-52
2022/06/10 14:00:11;;;;;;;1.45;1.45;;;;;;;;;;1794974;77;26208;-50
2022/06/10 14:02:40;;;;;;;1.40;1.40;;;;;;;;;;1793605;78;26295;-49
2022/06/10 14:05:08;;;;;;;1.27;1.27;;;;;;;;;;1759533;80;26860;-46
2022/06/10 14:07:39;;;;;;;1.40;1.40;;;;;;;;;;1778723;79;26433;-50
2022/06/10 14:10:26;;;;;;;1.40;1.40;;;;;;;;;;1769451;80;26803;-54
2022/06/10 14:12:58;;;;;;;1.37;1.37;;;;;;;;;;1777471;78;26353;-49
2022/06/10 14:15:28;;;;;;;1.30;1.30;;;;;;;;;;1768938;79;26367;-47
2022/06/10 14:17:57;;;;;;;1.40;1.40;;;;;;;;;;1776629;79;26932;-52
2022/06/10 14:20:26;;;;;;;1.30;1.30;;;;;;;;;;1792043;79;26348;-48
2022/06/10 14:22:54;;;;;;;1.40;1.40;;;;;;;;;;1781414;79;26275;-50
2022/06/10 14:25:22;;;;;;;1.30;1.30;;;;;;;;;;1787100;79;26321;-51
2022/06/10 14:27:51;;;;;;;1.32;1.32;;;;;;;;;;1775214;79;26641;-51
2022/06/10 14:30:25;;;;;;;1.40;1.40;;;;;;;;;;1767721;79;26951;-54
2022/06/10 14:32:57;;;;;;;1.50;1.50;;;;;;;;;;1775731;79;26747;-48
2022/06/10 14:35:32;;;;;;;1.47;1.47;;;;;;;;;;1765403;79;26295;-49
2022/06/10 14:38:01;;;;;;;1.50;1.50;;;;;;;;;;1770556;79;26420;-51
2022/06/10 14:40:29;;;;;;;1.40;1.40;;;;;;;;;;1770329;79;26294;-51
2022/06/10 14:43:04;;;;;;;1.50;1.50;;;;;;;;;;1772941;79;26722;-50
2022/06/10 14:45:33;;;;;;;1.40;1.40;;;;;;;;;;1774255;79;26384;-51
2022/06/10 14:48:08;;;;;;;1.40;1.40;;;;;;;;;;1772793;79;26793;-49
2022/06/10 14:50:39;;;;;;;1.60;1.60;;;;;;;;;;1784964;79;26802;-52
2022/06/10 14:53:18;;;;;;;1.60;1.60;;;;;;;;;;1773399;79;26411;-54
2022/06/10 14:55:47;;;;;;;1.50;1.50;;;;;;;;;;1773318;79;26838;-51
2022/06/10 14:58:16;;;;;;;1.40;1.40;;;;;;;;;;1794805;79;26271;-50
2022/06/10 15:00:45;;;;;;;1.40;1.40;;;;;;;;;;1763767;79;26332;-51
2022/06/10 15:03:14;;;;;;;1.40;1.40;;;;;;;;;;1767254;79;26359;-52
2022/06/10 15:08:27;;;;;;;1.45;1.45;;;;;;;;;;1768553;79;26298;-51
2022/06/10 15:10:54;;;;;;;1.52;1.52;;;;;;;;;;1809662;77;26315;-51
2022/06/10 15:13:23;;;;;;;1.60;1.60;;;;;;;;;;1821388;77;26370;-49